sensor_id;sensor_type;location;lat;lon;timestamp;temperature;humidity
4054;DHT22;2042;47.956;9.222;2023-02-24T00:01:23;0.10;41.60
4054;DHT22;2042;47.956;9.222;2023-02-24T00:03:57;0.10;41.70
4054;DHT22;2042;47.956;9.222;2023-02-24T00:06:26;0.00;41.50
4054;DHT22;2042;47.956;9.222;2023-02-24T00:09:10;0.00;40.80
4054;DHT22;2042;47.956;9.222;2023-02-24T00:11:38;-0.10;40.70
4054;DHT22;2042;47.956;9.222;2023-02-24T00:14:05;-0.10;41.10
4054;DHT22;2042;47.956;9.222;2023-02-24T00:16:32;-0.10;41.50
4054;DHT22;2042;47.956;9.222;2023-02-24T00:18:58;0.00;41.70
4054;DHT22;2042;47.956;9.222;2023-02-24T00:21:25;0.00;41.90
4054;DHT22;2042;47.956;9.222;2023-02-24T00:23:51;0.00;42.20
4054;DHT22;2042;47.956;9.222;2023-02-24T00:26:18;0.10;42.60
4054;DHT22;2042;47.956;9.222;2023-02-24T00:28:44;0.10;42.90
4054;DHT22;2042;47.956;9.222;2023-02-24T00:31:14;0.20;43.20
4054;DHT22;2042;47.956;9.222;2023-02-24T00:33:42;0.20;43.30
4054;DHT22;2042;47.956;9.222;2023-02-24T00:36:12;0.20;43.40
4054;DHT22;2042;47.956;9.222;2023-02-24T00:38:39;0.20;43.50
4054;DHT22;2042;47.956;9.222;2023-02-24T00:43:37;0.20;43.50
4054;DHT22;2042;47.956;9.222;2023-02-24T00:46:04;0.10;43.40
4054;DHT22;2042;47.956;9.222;2023-02-24T00:48:39;0.20;43.70
4054;DHT22;2042;47.956;9.222;2023-02-24T00:51:07;0.20;43.90
4054;DHT22;2042;47.956;9.222;2023-02-24T00:53:35;0.20;44.10
4054;DHT22;2042;47.956;9.222;2023-02-24T00:56:00;0.20;44.20
4054;DHT22;2042;47.956;9.222;2023-02-24T00:58:26;0.20;44.10
4054;DHT22;2042;47.956;9.222;2023-02-24T01:00:55;0.20;43.90
4054;DHT22;2042;47.956;9.222;2023-02-24T01:03:20;0.20;43.60
4054;DHT22;2042;47.956;9.222;2023-02-24T01:05:46;0.10;43.30
4054;DHT22;2042;47.956;9.222;2023-02-24T01:08:12;0.10;43.40
4054;DHT22;2042;47.956;9.222;2023-02-24T01:10:56;0.10;43.60
4054;DHT22;2042;47.956;9.222;2023-02-24T01:13:43;0.10;43.50
4054;DHT22;2042;47.956;9.222;2023-02-24T01:16:08;0.10;43.50
4054;DHT22;2042;47.956;9.222;2023-02-24T01:18:34;0.00;43.50
4054;DHT22;2042;47.956;9.222;2023-02-24T01:21:00;0.00;43.50
4054;DHT22;2042;47.956;9.222;2023-02-24T01:23:26;-0.10;43.40
4054;DHT22;2042;47.956;9.222;2023-02-24T01:25:52;-0.10;43.50
4054;DHT22;2042;47.956;9.222;2023-02-24T01:28:18;-0.20;43.60
4054;DHT22;2042;47.956;9.222;2023-02-24T01:30:44;-0.20;43.80
4054;DHT22;2042;47.956;9.222;2023-02-24T01:33:10;-0.20;44.00
4054;DHT22;2042;47.956;9.222;2023-02-24T01:35:41;-0.10;44.30
4054;DHT22;2042;47.956;9.222;2023-02-24T01:38:07;-0.10;44.50
4054;DHT22;2042;47.956;9.222;2023-02-24T01:40:33;0.00;44.70
4054;DHT22;2042;47.956;9.222;2023-02-24T01:42:59;0.00;44.90
4054;DHT22;2042;47.956;9.222;2023-02-24T01:45:27;0.00;45.10
4054;DHT22;2042;47.956;9.222;2023-02-24T01:47:57;0.10;45.30
4054;DHT22;2042;47.956;9.222;2023-02-24T01:50:25;0.10;45.40
4054;DHT22;2042;47.956;9.222;2023-02-24T01:52:56;0.10;45.30
4054;DHT22;2042;47.956;9.222;2023-02-24T01:55:32;0.10;45.20
4054;DHT22;2042;47.956;9.222;2023-02-24T01:58:01;0.00;44.80
4054;DHT22;2042;47.956;9.222;2023-02-24T02:00:29;0.00;44.70
4054;DHT22;2042;47.956;9.222;2023-02-24T02:03:32;0.00;44.90
4054;DHT22;2042;47.956;9.222;2023-02-24T02:06:01;0.00;45.00
4054;DHT22;2042;47.956;9.222;2023-02-24T02:08:27;0.00;45.20
4054;DHT22;2042;47.956;9.222;2023-02-24T02:10:54;0.10;45.50
4054;DHT22;2042;47.956;9.222;2023-02-24T02:13:24;0.20;45.80
4054;DHT22;2042;47.956;9.222;2023-02-24T02:38:36;0.70;46.60
4054;DHT22;2042;47.956;9.222;2023-02-24T02:46:25;0.70;46.50
4054;DHT22;2042;47.956;9.222;2023-02-24T02:49:11;0.70;46.50
4054;DHT22;2042;47.956;9.222;2023-02-24T02:51:43;0.60;46.30
4054;DHT22;2042;47.956;9.222;2023-02-24T02:54:26;0.50;46.20
4054;DHT22;2042;47.956;9.222;2023-02-24T02:59:31;0.40;46.10
4054;DHT22;2042;47.956;9.222;2023-02-24T03:02:00;0.30;45.90
4054;DHT22;2042;47.956;9.222;2023-02-24T03:04:43;0.20;45.90
4054;DHT22;2042;47.956;9.222;2023-02-24T03:07:12;0.10;45.70
4054;DHT22;2042;47.956;9.222;2023-02-24T03:09:41;0.10;45.60
4054;DHT22;2042;47.956;9.222;2023-02-24T03:12:15;0.10;45.70
4054;DHT22;2042;47.956;9.222;2023-02-24T03:14:47;0.10;45.70
4054;DHT22;2042;47.956;9.222;2023-02-24T03:17:21;0.00;45.70
4054;DHT22;2042;47.956;9.222;2023-02-24T03:19:57;0.00;45.60
4054;DHT22;2042;47.956;9.222;2023-02-24T03:22:38;-0.10;45.50
4054;DHT22;2042;47.956;9.222;2023-02-24T03:25:07;-0.10;46.20
4054;DHT22;2042;47.956;9.222;2023-02-24T03:27:44;-0.20;45.40
4054;DHT22;2042;47.956;9.222;2023-02-24T03:30:17;-0.20;45.40
4054;DHT22;2042;47.956;9.222;2023-02-24T03:32:51;-0.30;45.20
4054;DHT22;2042;47.956;9.222;2023-02-24T03:35:23;-0.30;45.20
4054;DHT22;2042;47.956;9.222;2023-02-24T03:37:50;-0.30;45.30
4054;DHT22;2042;47.956;9.222;2023-02-24T03:40:19;-0.30;45.30
4054;DHT22;2042;47.956;9.222;2023-02-24T03:42:48;-0.30;45.30
4054;DHT22;2042;47.956;9.222;2023-02-24T03:45:16;-0.40;45.30
4054;DHT22;2042;47.956;9.222;2023-02-24T03:47:42;-0.40;45.20
4054;DHT22;2042;47.956;9.222;2023-02-24T03:50:18;-0.40;45.30
4054;DHT22;2042;47.956;9.222;2023-02-24T03:53:28;-0.30;45.40
4054;DHT22;2042;47.956;9.222;2023-02-24T03:56:45;-0.30;45.40
4054;DHT22;2042;47.956;9.222;2023-02-24T04:01:57;-0.50;45.10
4054;DHT22;2042;47.956;9.222;2023-02-24T04:07:11;-0.60;44.90
4054;DHT22;2042;47.956;9.222;2023-02-24T04:14:49;-0.50;45.30
4054;DHT22;2042;47.956;9.222;2023-02-24T04:17:25;-0.40;45.40
4054;DHT22;2042;47.956;9.222;2023-02-24T04:19:58;-0.20;45.70
4054;DHT22;2042;47.956;9.222;2023-02-24T04:22:26;-0.10;45.80
4054;DHT22;2042;47.956;9.222;2023-02-24T04:24:56;0.00;46.00
4054;DHT22;2042;47.956;9.222;2023-02-24T04:27:25;0.10;46.10
4054;DHT22;2042;47.956;9.222;2023-02-24T04:29:54;0.20;46.40
4054;DHT22;2042;47.956;9.222;2023-02-24T04:32:25;0.30;46.50
4054;DHT22;2042;47.956;9.222;2023-02-24T04:34:52;0.40;46.70
4054;DHT22;2042;47.956;9.222;2023-02-24T04:37:19;0.40;46.80
4054;DHT22;2042;47.956;9.222;2023-02-24T04:39:48;0.50;47.00
4054;DHT22;2042;47.956;9.222;2023-02-24T04:42:16;0.60;47.10
4054;DHT22;2042;47.956;9.222;2023-02-24T04:44:44;0.60;47.10
4054;DHT22;2042;47.956;9.222;2023-02-24T04:47:11;0.60;47.10
4054;DHT22;2042;47.956;9.222;2023-02-24T04:49:37;0.60;47.20
4054;DHT22;2042;47.956;9.222;2023-02-24T04:52:06;0.70;47.30
4054;DHT22;2042;47.956;9.222;2023-02-24T04:54:33;0.70;47.30
4054;DHT22;2042;47.956;9.222;2023-02-24T04:57:00;0.80;47.40
4054;DHT22;2042;47.956;9.222;2023-02-24T04:59:26;0.80;47.50
4054;DHT22;2042;47.956;9.222;2023-02-24T05:01:52;0.80;47.60
4054;DHT22;2042;47.956;9.222;2023-02-24T05:04:18;0.80;47.40
4054;DHT22;2042;47.956;9.222;2023-02-24T05:06:44;0.80;47.40
4054;DHT22;2042;47.956;9.222;2023-02-24T05:09:15;0.70;47.30
4054;DHT22;2042;47.956;9.222;2023-02-24T05:11:43;0.70;47.30
4054;DHT22;2042;47.956;9.222;2023-02-24T05:14:12;0.70;47.30
4054;DHT22;2042;47.956;9.222;2023-02-24T05:16:40;0.60;47.20
4054;DHT22;2042;47.956;9.222;2023-02-24T05:19:07;0.60;47.10
4054;DHT22;2042;47.956;9.222;2023-02-24T05:21:51;0.50;47.00
4054;DHT22;2042;47.956;9.222;2023-02-24T05:24:16;0.40;46.80
4054;DHT22;2042;47.956;9.222;2023-02-24T05:26:42;0.30;46.50
4054;DHT22;2042;47.956;9.222;2023-02-24T05:29:09;0.20;46.40
4054;DHT22;2042;47.956;9.222;2023-02-24T05:31:35;0.20;46.30
4054;DHT22;2042;47.956;9.222;2023-02-24T05:34:04;0.10;46.10
4054;DHT22;2042;47.956;9.222;2023-02-24T05:36:36;0.00;46.00
4054;DHT22;2042;47.956;9.222;2023-02-24T05:39:05;0.00;45.80
4054;DHT22;2042;47.956;9.222;2023-02-24T05:41:33;-0.10;45.80
4054;DHT22;2042;47.956;9.222;2023-02-24T05:44:06;-0.20;45.60
4054;DHT22;2042;47.956;9.222;2023-02-24T05:46:36;-0.20;45.70
4054;DHT22;2042;47.956;9.222;2023-02-24T05:49:09;-0.30;45.70
4054;DHT22;2042;47.956;9.222;2023-02-24T05:51:37;-0.30;45.60
4054;DHT22;2042;47.956;9.222;2023-02-24T05:54:09;-0.40;45.50
4054;DHT22;2042;47.956;9.222;2023-02-24T05:56:37;-0.40;45.50
4054;DHT22;2042;47.956;9.222;2023-02-24T05:59:05;-0.50;45.40
4054;DHT22;2042;47.956;9.222;2023-02-24T06:01:38;-0.60;45.20
4054;DHT22;2042;47.956;9.222;2023-02-24T06:04:07;-0.70;45.20
4054;DHT22;2042;47.956;9.222;2023-02-24T06:06:33;-0.70;45.20
4054;DHT22;2042;47.956;9.222;2023-02-24T06:09:01;-0.80;45.10
4054;DHT22;2042;47.956;9.222;2023-02-24T06:11:32;-0.90;45.00
4054;DHT22;2042;47.956;9.222;2023-02-24T06:13:58;-0.90;45.70
4054;DHT22;2042;47.956;9.222;2023-02-24T06:16:24;-1.00;46.40
4054;DHT22;2042;47.956;9.222;2023-02-24T06:18:50;-1.00;47.30
4054;DHT22;2042;47.956;9.222;2023-02-24T06:21:17;-1.00;48.00
4054;DHT22;2042;47.956;9.222;2023-02-24T06:23:43;-1.10;48.30
4054;DHT22;2042;47.956;9.222;2023-02-24T06:26:10;-1.00;48.60
4054;DHT22;2042;47.956;9.222;2023-02-24T06:28:44;-0.90;48.90
4054;DHT22;2042;47.956;9.222;2023-02-24T06:31:11;-0.80;49.10
4054;DHT22;2042;47.956;9.222;2023-02-24T06:33:39;-0.70;49.20
4054;DHT22;2042;47.956;9.222;2023-02-24T06:36:06;-0.70;49.40
4054;DHT22;2042;47.956;9.222;2023-02-24T06:38:36;-0.70;49.40
4054;DHT22;2042;47.956;9.222;2023-02-24T06:41:02;-0.60;49.50
4054;DHT22;2042;47.956;9.222;2023-02-24T06:43:42;-0.60;49.60
4054;DHT22;2042;47.956;9.222;2023-02-24T06:46:09;-0.50;49.80
4054;DHT22;2042;47.956;9.222;2023-02-24T06:48:35;-0.50;50.10
4054;DHT22;2042;47.956;9.222;2023-02-24T06:53:30;-0.20;50.30
4054;DHT22;2042;47.956;9.222;2023-02-24T06:56:04;0.00;50.40
4054;DHT22;2042;47.956;9.222;2023-02-24T06:58:33;0.20;50.40
4054;DHT22;2042;47.956;9.222;2023-02-24T07:00:59;0.40;50.50
4054;DHT22;2042;47.956;9.222;2023-02-24T07:03:27;0.60;50.40
4054;DHT22;2042;47.956;9.222;2023-02-24T07:06:06;0.90;50.60
4054;DHT22;2042;47.956;9.222;2023-02-24T07:08:50;1.10;50.80
4054;DHT22;2042;47.956;9.222;2023-02-24T07:11:19;1.30;51.00
4054;DHT22;2042;47.956;9.222;2023-02-24T07:13:49;1.50;51.20
4054;DHT22;2042;47.956;9.222;2023-02-24T07:16:21;1.80;51.50
4054;DHT22;2042;47.956;9.222;2023-02-24T07:18:54;2.20;51.70
4054;DHT22;2042;47.956;9.222;2023-02-24T07:21:23;2.50;51.90
4054;DHT22;2042;47.956;9.222;2023-02-24T07:23:50;2.80;52.70
4054;DHT22;2042;47.956;9.222;2023-02-24T07:26:22;3.10;54.00
4054;DHT22;2042;47.956;9.222;2023-02-24T07:28:49;3.20;53.60
4054;DHT22;2042;47.956;9.222;2023-02-24T07:31:17;3.20;52.80
4054;DHT22;2042;47.956;9.222;2023-02-24T07:33:44;3.20;52.30
4054;DHT22;2042;47.956;9.222;2023-02-24T07:36:18;3.20;50.80
4054;DHT22;2042;47.956;9.222;2023-02-24T07:38:51;3.20;50.00
4054;DHT22;2042;47.956;9.222;2023-02-24T07:41:20;3.30;50.40
4054;DHT22;2042;47.956;9.222;2023-02-24T07:43:48;3.60;51.50
4054;DHT22;2042;47.956;9.222;2023-02-24T07:46:23;3.90;50.80
4054;DHT22;2042;47.956;9.222;2023-02-24T07:48:50;4.10;49.20
4054;DHT22;2042;47.956;9.222;2023-02-24T07:51:21;4.40;49.40
4054;DHT22;2042;47.956;9.222;2023-02-24T07:53:50;4.70;48.60
4054;DHT22;2042;47.956;9.222;2023-02-24T07:56:20;4.90;46.80
4054;DHT22;2042;47.956;9.222;2023-02-24T07:59:01;5.00;44.80
4054;DHT22;2042;47.956;9.222;2023-02-24T08:01:35;5.10;45.20
4054;DHT22;2042;47.956;9.222;2023-02-24T08:04:07;5.20;44.90
4054;DHT22;2042;47.956;9.222;2023-02-24T08:06:38;5.40;44.90
4054;DHT22;2042;47.956;9.222;2023-02-24T08:09:04;5.60;45.90
4054;DHT22;2042;47.956;9.222;2023-02-24T08:11:49;5.70;45.20
4054;DHT22;2042;47.956;9.222;2023-02-24T08:14:23;6.00;45.20
4054;DHT22;2042;47.956;9.222;2023-02-24T08:16:54;6.10;43.50
4054;DHT22;2042;47.956;9.222;2023-02-24T08:19:29;6.10;42.40
4054;DHT22;2042;47.956;9.222;2023-02-24T08:22:00;6.30;46.10
4054;DHT22;2042;47.956;9.222;2023-02-24T08:24:45;6.80;51.00
4054;DHT22;2042;47.956;9.222;2023-02-24T08:27:15;7.30;48.50
4054;DHT22;2042;47.956;9.222;2023-02-24T08:29:55;7.50;43.10
4054;DHT22;2042;47.956;9.222;2023-02-24T08:35:19;7.20;32.30
4054;DHT22;2042;47.956;9.222;2023-02-24T08:37:52;7.10;31.80
4054;DHT22;2042;47.956;9.222;2023-02-24T08:40:30;7.10;36.10
4054;DHT22;2042;47.956;9.222;2023-02-24T08:45:25;7.70;47.80
4054;DHT22;2042;47.956;9.222;2023-02-24T08:47:54;7.90;42.50
4054;DHT22;2042;47.956;9.222;2023-02-24T08:50:26;7.80;34.10
4054;DHT22;2042;47.956;9.222;2023-02-24T08:52:56;7.80;33.80
4054;DHT22;2042;47.956;9.222;2023-02-24T08:55:23;7.90;37.00
4054;DHT22;2042;47.956;9.222;2023-02-24T08:57:55;8.00;31.50
4054;DHT22;2042;47.956;9.222;2023-02-24T09:00:28;8.00;30.40
4054;DHT22;2042;47.956;9.222;2023-02-24T09:03:17;8.10;29.80
4054;DHT22;2042;47.956;9.222;2023-02-24T09:06:02;8.20;25.40
4054;DHT22;2042;47.956;9.222;2023-02-24T09:08:35;8.20;22.10
4054;DHT22;2042;47.956;9.222;2023-02-24T09:11:06;8.00;19.70
4054;DHT22;2042;47.956;9.222;2023-02-24T09:13:44;8.00;20.70
4054;DHT22;2042;47.956;9.222;2023-02-24T09:16:23;7.90;20.10
4054;DHT22;2042;47.956;9.222;2023-02-24T09:18:50;8.00;21.20
4054;DHT22;2042;47.956;9.222;2023-02-24T09:21:36;7.90;20.20
4054;DHT22;2042;47.956;9.222;2023-02-24T09:24:24;7.90;20.90
4054;DHT22;2042;47.956;9.222;2023-02-24T09:26:56;8.10;24.40
4054;DHT22;2042;47.956;9.222;2023-02-24T09:29:25;8.30;24.90
4054;DHT22;2042;47.956;9.222;2023-02-24T09:32:14;8.60;24.90
4054;DHT22;2042;47.956;9.222;2023-02-24T09:34:41;8.80;18.70
4054;DHT22;2042;47.956;9.222;2023-02-24T09:37:13;8.80;9.30
4054;DHT22;2042;47.956;9.222;2023-02-24T09:39:52;9.00;10.90
4054;DHT22;2042;47.956;9.222;2023-02-24T09:42:23;9.50;16.50
4054;DHT22;2042;47.956;9.222;2023-02-24T09:44:53;9.90;5.90
4054;DHT22;2042;47.956;9.222;2023-02-24T09:52:56;9.90;5.00
4054;DHT22;2042;47.956;9.222;2023-02-24T09:55:47;10.20;2.10
4054;DHT22;2042;47.956;9.222;2023-02-24T10:06:36;12.80;1.00
4054;DHT22;2042;47.956;9.222;2023-02-24T10:14:27;14.80;1.00
4054;DHT22;2042;47.956;9.222;2023-02-24T10:16:55;15.20;1.00
4054;DHT22;2042;47.956;9.222;2023-02-24T10:19:39;14.70;1.00
4054;DHT22;2042;47.956;9.222;2023-02-24T10:22:20;14.30;1.00
4054;DHT22;2042;47.956;9.222;2023-02-24T10:56:11;14.90;1.00
4054;DHT22;2042;47.956;9.222;2023-02-24T11:01:52;15.60;1.00
4054;DHT22;2042;47.956;9.222;2023-02-24T11:04:36;14.90;1.00
4054;DHT22;2042;47.956;9.222;2023-02-24T11:07:21;14.30;1.00
4054;DHT22;2042;47.956;9.222;2023-02-24T11:12:42;13.00;1.00
4054;DHT22;2042;47.956;9.222;2023-02-24T11:15:34;12.70;1.00
4054;DHT22;2042;47.956;9.222;2023-02-24T11:18:25;12.80;1.00
4054;DHT22;2042;47.956;9.222;2023-02-24T11:20:58;13.20;1.00
4054;DHT22;2042;47.956;9.222;2023-02-24T11:23:34;13.60;1.00
4054;DHT22;2042;47.956;9.222;2023-02-24T11:26:22;14.00;1.00
4054;DHT22;2042;47.956;9.222;2023-02-24T11:32:09;14.40;1.00
4054;DHT22;2042;47.956;9.222;2023-02-24T11:48:03;14.10;1.00
4054;DHT22;2042;47.956;9.222;2023-02-24T11:50:37;14.90;1.00
4054;DHT22;2042;47.956;9.222;2023-02-24T11:53:21;15.10;1.00
4054;DHT22;2042;47.956;9.222;2023-02-24T11:56:24;14.90;1.00
4054;DHT22;2042;47.956;9.222;2023-02-24T12:04:33;14.40;1.00
4054;DHT22;2042;47.956;9.222;2023-02-24T12:09:56;14.30;1.00
4054;DHT22;2042;47.956;9.222;2023-02-24T12:13:36;14.50;1.00
4054;DHT22;2042;47.956;9.222;2023-02-24T12:18:32;14.50;1.00
4054;DHT22;2042;47.956;9.222;2023-02-24T12:23:36;13.80;1.00
4054;DHT22;2042;47.956;9.222;2023-02-24T12:26:29;13.50;1.00
4054;DHT22;2042;47.956;9.222;2023-02-24T12:32:12;13.20;1.00
4054;DHT22;2042;47.956;9.222;2023-02-24T12:40:10;12.90;1.00
4054;DHT22;2042;47.956;9.222;2023-02-24T12:45:28;12.60;1.00
4054;DHT22;2042;47.956;9.222;2023-02-24T12:48:17;12.60;1.00
4054;DHT22;2042;47.956;9.222;2023-02-24T12:56:54;12.50;1.00
4054;DHT22;2042;47.956;9.222;2023-02-24T12:59:24;12.50;1.00
4054;DHT22;2042;47.956;9.222;2023-02-24T13:10:26;13.00;1.00
4054;DHT22;2042;47.956;9.222;2023-02-24T13:12:58;13.20;1.00
4054;DHT22;2042;47.956;9.222;2023-02-24T13:15:27;13.30;1.00
4054;DHT22;2042;47.956;9.222;2023-02-24T13:17:57;13.30;1.00
4054;DHT22;2042;47.956;9.222;2023-02-24T13:20:31;13.00;1.00
4054;DHT22;2042;47.956;9.222;2023-02-24T13:22:59;12.70;1.00
4054;DHT22;2042;47.956;9.222;2023-02-24T13:25:37;12.60;1.00
4054;DHT22;2042;47.956;9.222;2023-02-24T13:31:10;12.40;1.00
4054;DHT22;2042;47.956;9.222;2023-02-24T13:38:43;12.60;1.00
4054;DHT22;2042;47.956;9.222;2023-02-24T13:43:58;12.50;1.00
4054;DHT22;2042;47.956;9.222;2023-02-24T13:46:51;12.60;1.00
4054;DHT22;2042;47.956;9.222;2023-02-24T13:53:15;12.90;1.00
4054;DHT22;2042;47.956;9.222;2023-02-24T14:01:08;13.30;1.00
4054;DHT22;2042;47.956;9.222;2023-02-24T14:03:38;13.40;1.00
4054;DHT22;2042;47.956;9.222;2023-02-24T14:06:12;13.60;1.00
4054;DHT22;2042;47.956;9.222;2023-02-24T14:08:48;13.60;1.00
4054;DHT22;2042;47.956;9.222;2023-02-24T14:11:16;13.60;1.00
4054;DHT22;2042;47.956;9.222;2023-02-24T14:13:49;13.40;1.00
4054;DHT22;2042;47.956;9.222;2023-02-24T14:16:28;13.20;1.00
4054;DHT22;2042;47.956;9.222;2023-02-24T14:18:57;13.00;1.00
4054;DHT22;2042;47.956;9.222;2023-02-24T14:21:25;12.70;1.00
4054;DHT22;2042;47.956;9.222;2023-02-24T14:24:00;12.60;1.00
4054;DHT22;2042;47.956;9.222;2023-02-24T14:26:34;12.50;1.00
4054;DHT22;2042;47.956;9.222;2023-02-24T14:29:01;12.40;1.00
4054;DHT22;2042;47.956;9.222;2023-02-24T14:31:28;12.40;1.00
4054;DHT22;2042;47.956;9.222;2023-02-24T14:34:02;12.30;1.00
4054;DHT22;2042;47.956;9.222;2023-02-24T14:36:41;12.20;1.00
4054;DHT22;2042;47.956;9.222;2023-02-24T14:39:13;12.10;1.00
4054;DHT22;2042;47.956;9.222;2023-02-24T14:41:41;12.10;1.00
4054;DHT22;2042;47.956;9.222;2023-02-24T14:44:23;12.10;1.00
4054;DHT22;2042;47.956;9.222;2023-02-24T14:46:54;12.10;1.00
4054;DHT22;2042;47.956;9.222;2023-02-24T14:49:31;12.10;1.00
4054;DHT22;2042;47.956;9.222;2023-02-24T14:52:20;12.00;1.00
4054;DHT22;2042;47.956;9.222;2023-02-24T14:54:52;12.00;1.00
4054;DHT22;2042;47.956;9.222;2023-02-24T14:57:23;11.90;1.00
4054;DHT22;2042;47.956;9.222;2023-02-24T14:59:57;11.80;1.00
4054;DHT22;2042;47.956;9.222;2023-02-24T15:02:30;11.50;1.00
4054;DHT22;2042;47.956;9.222;2023-02-24T15:04:58;11.30;1.00
4054;DHT22;2042;47.956;9.222;2023-02-24T15:07:27;11.10;1.00
4054;DHT22;2042;47.956;9.222;2023-02-24T15:09:54;10.90;1.00
4054;DHT22;2042;47.956;9.222;2023-02-24T15:12:32;10.80;1.00
4054;DHT22;2042;47.956;9.222;2023-02-24T15:15:12;10.70;1.00
4054;DHT22;2042;47.956;9.222;2023-02-24T15:17:41;10.60;1.00
4054;DHT22;2042;47.956;9.222;2023-02-24T15:20:24;10.50;1.00
4054;DHT22;2042;47.956;9.222;2023-02-24T15:22:50;10.60;1.00
4054;DHT22;2042;47.956;9.222;2023-02-24T15:28:00;10.90;1.00
4054;DHT22;2042;47.956;9.222;2023-02-24T15:33:07;10.80;1.00
4054;DHT22;2042;47.956;9.222;2023-02-24T15:35:47;10.70;1.00
4054;DHT22;2042;47.956;9.222;2023-02-24T15:38:23;10.60;1.00
4054;DHT22;2042;47.956;9.222;2023-02-24T15:40:54;10.50;1.00
4054;DHT22;2042;47.956;9.222;2023-02-24T15:43:44;10.40;1.00
4054;DHT22;2042;47.956;9.222;2023-02-24T15:46:32;10.40;1.00
4054;DHT22;2042;47.956;9.222;2023-02-24T15:48:58;10.40;1.00
4054;DHT22;2042;47.956;9.222;2023-02-24T15:51:30;10.30;1.00
4054;DHT22;2042;47.956;9.222;2023-02-24T15:53:59;10.30;1.00
4054;DHT22;2042;47.956;9.222;2023-02-24T15:56:27;10.20;1.00
4054;DHT22;2042;47.956;9.222;2023-02-24T15:58:53;10.30;1.00
4054;DHT22;2042;47.956;9.222;2023-02-24T16:01:19;10.30;1.00
4054;DHT22;2042;47.956;9.222;2023-02-24T16:03:46;10.30;1.00
4054;DHT22;2042;47.956;9.222;2023-02-24T16:06:21;10.30;1.00
4054;DHT22;2042;47.956;9.222;2023-02-24T16:08:49;10.30;1.00
4054;DHT22;2042;47.956;9.222;2023-02-24T16:11:20;10.30;1.00
4054;DHT22;2042;47.956;9.222;2023-02-24T16:14:01;10.30;1.00
4054;DHT22;2042;47.956;9.222;2023-02-24T16:16:27;10.30;1.00
4054;DHT22;2042;47.956;9.222;2023-02-24T16:18:53;10.20;1.00
4054;DHT22;2042;47.956;9.222;2023-02-24T16:21:19;10.10;1.00
4054;DHT22;2042;47.956;9.222;2023-02-24T16:23:46;10.10;1.00
4054;DHT22;2042;47.956;9.222;2023-02-24T16:26:20;9.90;1.00
4054;DHT22;2042;47.956;9.222;2023-02-24T16:28:54;9.80;1.00
4054;DHT22;2042;47.956;9.222;2023-02-24T16:31:22;9.60;1.00
4054;DHT22;2042;47.956;9.222;2023-02-24T16:33:48;9.60;1.00
4054;DHT22;2042;47.956;9.222;2023-02-24T16:36:14;9.50;1.00
4054;DHT22;2042;47.956;9.222;2023-02-24T16:38:41;9.40;1.00
4054;DHT22;2042;47.956;9.222;2023-02-24T16:41:11;9.30;1.00
4054;DHT22;2042;47.956;9.222;2023-02-24T16:43:37;9.20;1.00
4054;DHT22;2042;47.956;9.222;2023-02-24T16:46:05;9.10;1.00
4054;DHT22;2042;47.956;9.222;2023-02-24T16:48:33;9.00;1.00
4054;DHT22;2042;47.956;9.222;2023-02-24T16:51:06;8.90;1.00
4054;DHT22;2042;47.956;9.222;2023-02-24T16:53:33;8.90;1.00
4054;DHT22;2042;47.956;9.222;2023-02-24T16:55:59;8.80;1.00
4054;DHT22;2042;47.956;9.222;2023-02-24T16:58:25;8.80;1.00
4054;DHT22;2042;47.956;9.222;2023-02-24T17:00:54;8.70;1.00
4054;DHT22;2042;47.956;9.222;2023-02-24T17:03:46;8.70;1.00
4054;DHT22;2042;47.956;9.222;2023-02-24T17:06:09;8.70;1.00
4054;DHT22;2042;47.956;9.222;2023-02-24T17:08:35;8.70;1.00
4054;DHT22;2042;47.956;9.222;2023-02-24T17:11:02;8.70;1.00
4054;DHT22;2042;47.956;9.222;2023-02-24T17:13:28;8.70;1.00
4054;DHT22;2042;47.956;9.222;2023-02-24T17:15:55;8.80;1.00
4054;DHT22;2042;47.956;9.222;2023-02-24T17:18:23;8.90;1.00
4054;DHT22;2042;47.956;9.222;2023-02-24T17:20:49;9.00;1.00
4054;DHT22;2042;47.956;9.222;2023-02-24T17:23:17;9.00;1.00
4054;DHT22;2042;47.956;9.222;2023-02-24T17:25:44;9.00;1.00
4054;DHT22;2042;47.956;9.222;2023-02-24T17:28:12;8.90;1.00
4054;DHT22;2042;47.956;9.222;2023-02-24T17:30:38;8.90;1.00
4054;DHT22;2042;47.956;9.222;2023-02-24T17:33:05;8.90;1.00
4054;DHT22;2042;47.956;9.222;2023-02-24T17:35:32;8.90;1.00
4054;DHT22;2042;47.956;9.222;2023-02-24T17:37:57;8.80;1.00
4054;DHT22;2042;47.956;9.222;2023-02-24T17:40:23;8.80;1.00
4054;DHT22;2042;47.956;9.222;2023-02-24T17:42:49;8.70;1.00
4054;DHT22;2042;47.956;9.222;2023-02-24T17:45:17;8.70;1.00
4054;DHT22;2042;47.956;9.222;2023-02-24T17:47:43;8.60;1.00
4054;DHT22;2042;47.956;9.222;2023-02-24T17:50:11;8.60;1.00
4054;DHT22;2042;47.956;9.222;2023-02-24T17:52:37;8.50;1.00
4054;DHT22;2042;47.956;9.222;2023-02-24T17:55:04;8.50;1.00
4054;DHT22;2042;47.956;9.222;2023-02-24T17:57:32;8.40;1.00
4054;DHT22;2042;47.956;9.222;2023-02-24T17:59:58;8.40;1.00
4054;DHT22;2042;47.956;9.222;2023-02-24T18:02:26;8.30;1.00
4054;DHT22;2042;47.956;9.222;2023-02-24T18:04:51;8.20;1.00
4054;DHT22;2042;47.956;9.222;2023-02-24T18:07:19;8.10;1.00
4054;DHT22;2042;47.956;9.222;2023-02-24T18:09:47;8.10;1.00
4054;DHT22;2042;47.956;9.222;2023-02-24T18:12:14;8.00;1.00
4054;DHT22;2042;47.956;9.222;2023-02-24T18:14:41;7.90;1.00
4054;DHT22;2042;47.956;9.222;2023-02-24T18:17:07;7.80;1.00
4054;DHT22;2042;47.956;9.222;2023-02-24T18:19:33;7.70;1.00
4054;DHT22;2042;47.956;9.222;2023-02-24T18:22:01;7.60;1.00
4054;DHT22;2042;47.956;9.222;2023-02-24T18:24:28;7.50;1.00
4054;DHT22;2042;47.956;9.222;2023-02-24T18:26:55;7.40;1.00
4054;DHT22;2042;47.956;9.222;2023-02-24T18:29:21;7.30;1.00
4054;DHT22;2042;47.956;9.222;2023-02-24T18:31:48;7.30;2.10
4054;DHT22;2042;47.956;9.222;2023-02-24T18:34:13;7.30;3.40
4054;DHT22;2042;47.956;9.222;2023-02-24T18:36:39;7.30;3.00
4054;DHT22;2042;47.956;9.222;2023-02-24T18:39:05;7.20;2.50
4054;DHT22;2042;47.956;9.222;2023-02-24T18:41:33;7.20;3.70
4054;DHT22;2042;47.956;9.222;2023-02-24T18:43:59;7.20;5.20
4054;DHT22;2042;47.956;9.222;2023-02-24T18:46:25;7.20;7.50
4054;DHT22;2042;47.956;9.222;2023-02-24T18:48:54;7.20;8.00
4054;DHT22;2042;47.956;9.222;2023-02-24T18:51:21;7.30;8.50
4054;DHT22;2042;47.956;9.222;2023-02-24T18:53:51;7.30;8.10
4054;DHT22;2042;47.956;9.222;2023-02-24T18:56:21;7.30;7.90
4054;DHT22;2042;47.956;9.222;2023-02-24T18:58:49;7.30;5.60
4054;DHT22;2042;47.956;9.222;2023-02-24T19:01:21;7.30;3.10
4054;DHT22;2042;47.956;9.222;2023-02-24T19:03:49;7.30;1.20
4054;DHT22;2042;47.956;9.222;2023-02-24T19:06:16;7.30;1.00
4054;DHT22;2042;47.956;9.222;2023-02-24T19:08:48;7.30;1.00
4054;DHT22;2042;47.956;9.222;2023-02-24T19:11:19;7.40;1.00
4054;DHT22;2042;47.956;9.222;2023-02-24T19:13:46;7.40;1.00
4054;DHT22;2042;47.956;9.222;2023-02-24T19:16:13;7.50;1.00
4054;DHT22;2042;47.956;9.222;2023-02-24T19:18:40;7.50;1.00
4054;DHT22;2042;47.956;9.222;2023-02-24T19:21:07;7.60;1.00
4054;DHT22;2042;47.956;9.222;2023-02-24T19:23:36;7.60;1.00
4054;DHT22;2042;47.956;9.222;2023-02-24T19:26:04;7.60;1.00
4054;DHT22;2042;47.956;9.222;2023-02-24T19:28:33;7.70;1.00
4054;DHT22;2042;47.956;9.222;2023-02-24T19:30:58;7.80;1.00
4054;DHT22;2042;47.956;9.222;2023-02-24T19:33:24;7.90;1.00
4054;DHT22;2042;47.956;9.222;2023-02-24T19:35:50;8.10;1.00
4054;DHT22;2042;47.956;9.222;2023-02-24T19:38:19;8.10;1.00
4054;DHT22;2042;47.956;9.222;2023-02-24T19:40:49;8.10;1.00
4054;DHT22;2042;47.956;9.222;2023-02-24T19:43:15;8.10;1.00
4054;DHT22;2042;47.956;9.222;2023-02-24T19:45:42;8.00;1.00
4054;DHT22;2042;47.956;9.222;2023-02-24T19:48:09;8.00;1.00
4054;DHT22;2042;47.956;9.222;2023-02-24T19:50:38;8.00;1.00
4054;DHT22;2042;47.956;9.222;2023-02-24T19:53:06;7.90;1.00
4054;DHT22;2042;47.956;9.222;2023-02-24T19:55:33;7.90;1.00